sensor_id;sensor_type;location;lat;lon;timestamp;P1;durP1;ratioP1;P2;durP2;ratioP2
4794;SDS011;2411;47.060;15.064;2023-02-28T00:01:03;3.50;;;3.23;;
4794;SDS011;2411;47.060;15.064;2023-02-28T00:03:31;3.00;;;2.70;;
4794;SDS011;2411;47.060;15.064;2023-02-28T00:06:04;2.80;;;2.70;;
4794;SDS011;2411;47.060;15.064;2023-02-28T00:08:33;2.73;;;2.53;;
4794;SDS011;2411;47.060;15.064;2023-02-28T00:11:00;3.30;;;3.00;;
4794;SDS011;2411;47.060;15.064;2023-02-28T00:13:29;3.10;;;2.90;;
4794;SDS011;2411;47.060;15.064;2023-02-28T00:16:01;2.87;;;2.70;;
4794;SDS011;2411;47.060;15.064;2023-02-28T00:18:29;2.73;;;2.63;;
4794;SDS011;2411;47.060;15.064;2023-02-28T00:20:57;3.00;;;2.80;;
4794;SDS011;2411;47.060;15.064;2023-02-28T00:23:25;3.47;;;3.10;;
4794;SDS011;2411;47.060;15.064;2023-02-28T00:25:53;3.10;;;2.77;;
4794;SDS011;2411;47.060;15.064;2023-02-28T00:28:20;3.27;;;2.90;;
4794;SDS011;2411;47.060;15.064;2023-02-28T00:30:48;2.93;;;2.73;;
4794;SDS011;2411;47.060;15.064;2023-02-28T00:33:15;2.60;;;2.50;;
4794;SDS011;2411;47.060;15.064;2023-02-28T00:35:43;2.70;;;2.60;;
4794;SDS011;2411;47.060;15.064;2023-02-28T00:38:13;4.57;;;3.13;;
4794;SDS011;2411;47.060;15.064;2023-02-28T00:40:41;3.10;;;2.90;;
4794;SDS011;2411;47.060;15.064;2023-02-28T00:43:08;3.30;;;3.10;;
4794;SDS011;2411;47.060;15.064;2023-02-28T00:45:35;3.07;;;2.77;;
4794;SDS011;2411;47.060;15.064;2023-02-28T00:48:02;3.13;;;2.93;;
4794;SDS011;2411;47.060;15.064;2023-02-28T00:50:30;2.97;;;2.87;;
4794;SDS011;2411;47.060;15.064;2023-02-28T00:52:57;3.07;;;2.87;;
4794;SDS011;2411;47.060;15.064;2023-02-28T00:55:24;3.20;;;2.90;;
4794;SDS011;2411;47.060;15.064;2023-02-28T00:57:52;2.43;;;2.27;;
4794;SDS011;2411;47.060;15.064;2023-02-28T01:00:19;3.37;;;3.07;;
4794;SDS011;2411;47.060;15.064;2023-02-28T01:02:46;3.20;;;2.90;;
4794;SDS011;2411;47.060;15.064;2023-02-28T01:05:13;2.97;;;2.77;;
4794;SDS011;2411;47.060;15.064;2023-02-28T01:07:41;3.27;;;3.03;;
4794;SDS011;2411;47.060;15.064;2023-02-28T01:10:08;2.60;;;2.40;;
4794;SDS011;2411;47.060;15.064;2023-02-28T01:12:36;2.90;;;2.70;;
4794;SDS011;2411;47.060;15.064;2023-02-28T01:15:03;3.17;;;2.97;;
4794;SDS011;2411;47.060;15.064;2023-02-28T01:17:31;3.17;;;3.00;;
4794;SDS011;2411;47.060;15.064;2023-02-28T01:19:58;2.93;;;2.80;;
4794;SDS011;2411;47.060;15.064;2023-02-28T01:22:25;3.40;;;3.20;;
4794;SDS011;2411;47.060;15.064;2023-02-28T01:24:52;3.93;;;3.53;;
4794;SDS011;2411;47.060;15.064;2023-02-28T01:27:19;3.03;;;2.83;;
4794;SDS011;2411;47.060;15.064;2023-02-28T01:29:46;3.30;;;3.00;;
4794;SDS011;2411;47.060;15.064;2023-02-28T01:32:13;3.17;;;2.87;;
4794;SDS011;2411;47.060;15.064;2023-02-28T01:34:41;3.00;;;2.80;;
4794;SDS011;2411;47.060;15.064;2023-02-28T01:37:08;3.17;;;2.80;;
4794;SDS011;2411;47.060;15.064;2023-02-28T01:39:35;3.40;;;3.10;;
4794;SDS011;2411;47.060;15.064;2023-02-28T01:42:02;3.27;;;3.07;;
4794;SDS011;2411;47.060;15.064;2023-02-28T01:47:22;2.43;;;2.33;;
4794;SDS011;2411;47.060;15.064;2023-02-28T01:49:51;3.00;;;2.80;;
4794;SDS011;2411;47.060;15.064;2023-02-28T01:52:19;2.87;;;2.67;;
4794;SDS011;2411;47.060;15.064;2023-02-28T01:54:51;2.53;;;2.43;;
4794;SDS011;2411;47.060;15.064;2023-02-28T01:57:21;3.00;;;2.80;;
4794;SDS011;2411;47.060;15.064;2023-02-28T01:59:54;3.37;;;3.10;;
4794;SDS011;2411;47.060;15.064;2023-02-28T02:02:25;3.20;;;2.90;;
4794;SDS011;2411;47.060;15.064;2023-02-28T02:04:58;2.93;;;2.77;;
4794;SDS011;2411;47.060;15.064;2023-02-28T02:07:29;3.73;;;3.43;;
4794;SDS011;2411;47.060;15.064;2023-02-28T02:16:23;3.07;;;2.80;;
4794;SDS011;2411;47.060;15.064;2023-02-28T02:24:50;4.60;;;2.97;;
4794;SDS011;2411;47.060;15.064;2023-02-28T02:33:23;4.77;;;4.03;;
4794;SDS011;2411;47.060;15.064;2023-02-28T02:36:18;3.80;;;3.53;;
4794;SDS011;2411;47.060;15.064;2023-02-28T02:39:04;4.57;;;3.80;;
4794;SDS011;2411;47.060;15.064;2023-02-28T02:41:40;5.43;;;3.60;;
4794;SDS011;2411;47.060;15.064;2023-02-28T02:44:24;5.00;;;4.10;;
4794;SDS011;2411;47.060;15.064;2023-02-28T02:46:59;7.00;;;3.70;;
4794;SDS011;2411;47.060;15.064;2023-02-28T02:49:34;5.57;;;4.97;;
4794;SDS011;2411;47.060;15.064;2023-02-28T02:52:04;8.87;;;5.73;;
4794;SDS011;2411;47.060;15.064;2023-02-28T02:54:38;5.27;;;4.80;;
4794;SDS011;2411;47.060;15.064;2023-02-28T02:57:11;9.60;;;6.70;;
4794;SDS011;2411;47.060;15.064;2023-02-28T02:59:43;6.37;;;5.30;;
4794;SDS011;2411;47.060;15.064;2023-02-28T03:02:12;4.10;;;3.70;;
4794;SDS011;2411;47.060;15.064;2023-02-28T03:04:43;3.80;;;3.60;;
4794;SDS011;2411;47.060;15.064;2023-02-28T03:07:15;3.80;;;3.50;;
4794;SDS011;2411;47.060;15.064;2023-02-28T03:09:50;3.77;;;3.40;;
4794;SDS011;2411;47.060;15.064;2023-02-28T03:12:22;3.17;;;2.97;;
4794;SDS011;2411;47.060;15.064;2023-02-28T03:18:01;3.60;;;3.40;;
4794;SDS011;2411;47.060;15.064;2023-02-28T03:21:04;3.40;;;3.10;;
4794;SDS011;2411;47.060;15.064;2023-02-28T03:23:44;3.93;;;3.53;;
4794;SDS011;2411;47.060;15.064;2023-02-28T03:26:21;3.33;;;3.03;;
4794;SDS011;2411;47.060;15.064;2023-02-28T03:31:54;4.50;;;3.50;;
4794;SDS011;2411;47.060;15.064;2023-02-28T03:34:29;3.93;;;3.07;;
4794;SDS011;2411;47.060;15.064;2023-02-28T03:37:02;3.47;;;3.17;;
4794;SDS011;2411;47.060;15.064;2023-02-28T03:39:38;13.70;;;4.00;;
4794;SDS011;2411;47.060;15.064;2023-02-28T03:42:16;7.33;;;3.87;;
4794;SDS011;2411;47.060;15.064;2023-02-28T03:47:31;3.60;;;3.10;;
4794;SDS011;2411;47.060;15.064;2023-02-28T03:50:06;3.97;;;3.47;;
4794;SDS011;2411;47.060;15.064;2023-02-28T03:52:36;3.57;;;3.37;;
4794;SDS011;2411;47.060;15.064;2023-02-28T03:55:13;3.60;;;3.40;;
4794;SDS011;2411;47.060;15.064;2023-02-28T04:00:49;3.20;;;2.90;;
4794;SDS011;2411;47.060;15.064;2023-02-28T04:03:20;4.90;;;3.70;;
4794;SDS011;2411;47.060;15.064;2023-02-28T04:05:52;3.77;;;3.20;;
4794;SDS011;2411;47.060;15.064;2023-02-28T04:08:21;3.50;;;3.20;;
4794;SDS011;2411;47.060;15.064;2023-02-28T04:10:54;5.10;;;3.40;;
4794;SDS011;2411;47.060;15.064;2023-02-28T04:13:27;4.03;;;3.50;;
4794;SDS011;2411;47.060;15.064;2023-02-28T04:15:55;3.77;;;3.47;;
4794;SDS011;2411;47.060;15.064;2023-02-28T04:18:22;3.67;;;3.40;;
4794;SDS011;2411;47.060;15.064;2023-02-28T04:20:49;3.37;;;3.13;;
4794;SDS011;2411;47.060;15.064;2023-02-28T04:23:16;3.70;;;3.40;;
4794;SDS011;2411;47.060;15.064;2023-02-28T04:25:44;4.43;;;3.40;;
4794;SDS011;2411;47.060;15.064;2023-02-28T04:28:11;3.53;;;3.23;;
4794;SDS011;2411;47.060;15.064;2023-02-28T04:30:38;4.50;;;4.10;;
4794;SDS011;2411;47.060;15.064;2023-02-28T04:33:05;4.03;;;3.60;;
4794;SDS011;2411;47.060;15.064;2023-02-28T04:35:33;3.43;;;3.20;;
4794;SDS011;2411;47.060;15.064;2023-02-28T04:38:00;3.17;;;2.93;;
4794;SDS011;2411;47.060;15.064;2023-02-28T04:40:27;3.10;;;2.90;;
4794;SDS011;2411;47.060;15.064;2023-02-28T04:42:54;5.57;;;3.70;;
4794;SDS011;2411;47.060;15.064;2023-02-28T04:45:22;3.83;;;3.60;;
4794;SDS011;2411;47.060;15.064;2023-02-28T04:47:49;4.00;;;3.70;;
4794;SDS011;2411;47.060;15.064;2023-02-28T04:50:16;3.97;;;3.47;;
4794;SDS011;2411;47.060;15.064;2023-02-28T04:52:43;3.40;;;3.10;;
4794;SDS011;2411;47.060;15.064;2023-02-28T04:55:10;3.60;;;3.30;;
4794;SDS011;2411;47.060;15.064;2023-02-28T04:57:37;4.00;;;3.70;;
4794;SDS011;2411;47.060;15.064;2023-02-28T05:00:05;4.03;;;3.70;;
4794;SDS011;2411;47.060;15.064;2023-02-28T05:02:38;3.07;;;2.87;;
4794;SDS011;2411;47.060;15.064;2023-02-28T05:05:06;4.50;;;4.20;;
4794;SDS011;2411;47.060;15.064;2023-02-28T05:07:33;6.77;;;4.23;;
4794;SDS011;2411;47.060;15.064;2023-02-28T05:10:00;4.97;;;4.47;;
4794;SDS011;2411;47.060;15.064;2023-02-28T05:12:27;6.03;;;4.40;;
4794;SDS011;2411;47.060;15.064;2023-02-28T05:14:55;4.97;;;4.10;;
4794;SDS011;2411;47.060;15.064;2023-02-28T05:17:22;4.57;;;4.23;;
4794;SDS011;2411;47.060;15.064;2023-02-28T05:19:49;4.70;;;3.93;;
4794;SDS011;2411;47.060;15.064;2023-02-28T05:22:17;3.47;;;3.27;;
4794;SDS011;2411;47.060;15.064;2023-02-28T05:24:44;5.07;;;4.57;;
4794;SDS011;2411;47.060;15.064;2023-02-28T05:27:11;6.00;;;4.53;;
4794;SDS011;2411;47.060;15.064;2023-02-28T05:29:39;11.83;;;4.63;;
4794;SDS011;2411;47.060;15.064;2023-02-28T05:32:10;4.73;;;3.90;;
4794;SDS011;2411;47.060;15.064;2023-02-28T05:34:38;4.07;;;3.77;;
4794;SDS011;2411;47.060;15.064;2023-02-28T05:37:08;4.37;;;3.90;;
4794;SDS011;2411;47.060;15.064;2023-02-28T05:39:39;8.33;;;5.40;;
4794;SDS011;2411;47.060;15.064;2023-02-28T05:42:06;6.63;;;5.30;;
4794;SDS011;2411;47.060;15.064;2023-02-28T05:44:33;5.27;;;4.73;;
4794;SDS011;2411;47.060;15.064;2023-02-28T05:47:00;5.57;;;5.07;;
4794;SDS011;2411;47.060;15.064;2023-02-28T05:49:28;5.70;;;5.07;;
4794;SDS011;2411;47.060;15.064;2023-02-28T05:51:55;8.20;;;5.70;;
4794;SDS011;2411;47.060;15.064;2023-02-28T05:54:22;5.37;;;4.77;;
4794;SDS011;2411;47.060;15.064;2023-02-28T05:56:49;5.50;;;4.70;;
4794;SDS011;2411;47.060;15.064;2023-02-28T05:59:16;5.80;;;5.20;;
4794;SDS011;2411;47.060;15.064;2023-02-28T06:01:44;9.73;;;5.13;;
4794;SDS011;2411;47.060;15.064;2023-02-28T06:04:15;5.53;;;5.00;;
4794;SDS011;2411;47.060;15.064;2023-02-28T06:06:57;5.30;;;4.93;;
4794;SDS011;2411;47.060;15.064;2023-02-28T06:09:24;7.77;;;5.30;;
4794;SDS011;2411;47.060;15.064;2023-02-28T06:11:52;5.57;;;5.03;;
4794;SDS011;2411;47.060;15.064;2023-02-28T06:14:19;8.83;;;6.23;;
4794;SDS011;2411;47.060;15.064;2023-02-28T06:16:47;6.40;;;5.87;;
4794;SDS011;2411;47.060;15.064;2023-02-28T06:19:15;11.20;;;5.67;;
4794;SDS011;2411;47.060;15.064;2023-02-28T06:21:43;5.93;;;5.30;;
4794;SDS011;2411;47.060;15.064;2023-02-28T06:24:10;6.47;;;5.27;;
4794;SDS011;2411;47.060;15.064;2023-02-28T06:26:37;6.10;;;5.50;;
4794;SDS011;2411;47.060;15.064;2023-02-28T06:29:04;6.23;;;5.63;;
4794;SDS011;2411;47.060;15.064;2023-02-28T06:31:31;7.50;;;5.57;;
4794;SDS011;2411;47.060;15.064;2023-02-28T06:33:59;5.60;;;4.90;;
4794;SDS011;2411;47.060;15.064;2023-02-28T06:36:27;6.33;;;4.90;;
4794;SDS011;2411;47.060;15.064;2023-02-28T06:38:54;7.43;;;6.30;;
4794;SDS011;2411;47.060;15.064;2023-02-28T06:41:24;5.90;;;5.30;;
4794;SDS011;2411;47.060;15.064;2023-02-28T06:43:52;7.47;;;5.80;;
4794;SDS011;2411;47.060;15.064;2023-02-28T06:46:19;6.17;;;5.00;;
4794;SDS011;2411;47.060;15.064;2023-02-28T06:48:47;4.50;;;4.20;;
4794;SDS011;2411;47.060;15.064;2023-02-28T06:51:16;4.00;;;3.70;;
4794;SDS011;2411;47.060;15.064;2023-02-28T06:53:46;4.50;;;4.10;;
4794;SDS011;2411;47.060;15.064;2023-02-28T06:56:14;4.67;;;4.30;;
4794;SDS011;2411;47.060;15.064;2023-02-28T06:58:45;9.83;;;5.13;;
4794;SDS011;2411;47.060;15.064;2023-02-28T07:01:16;5.97;;;5.27;;
4794;SDS011;2411;47.060;15.064;2023-02-28T07:03:44;6.53;;;4.80;;
4794;SDS011;2411;47.060;15.064;2023-02-28T07:06:12;7.13;;;5.47;;
4794;SDS011;2411;47.060;15.064;2023-02-28T07:08:39;6.03;;;5.43;;
4794;SDS011;2411;47.060;15.064;2023-02-28T07:11:07;7.30;;;4.93;;
4794;SDS011;2411;47.060;15.064;2023-02-28T07:13:35;10.27;;;6.20;;
4794;SDS011;2411;47.060;15.064;2023-02-28T07:16:04;6.70;;;4.77;;
4794;SDS011;2411;47.060;15.064;2023-02-28T07:18:33;4.93;;;4.43;;
4794;SDS011;2411;47.060;15.064;2023-02-28T07:21:04;6.40;;;4.77;;
4794;SDS011;2411;47.060;15.064;2023-02-28T07:23:33;6.67;;;5.30;;
4794;SDS011;2411;47.060;15.064;2023-02-28T07:26:01;7.27;;;4.90;;
4794;SDS011;2411;47.060;15.064;2023-02-28T07:28:29;8.77;;;5.13;;
4794;SDS011;2411;47.060;15.064;2023-02-28T07:30:56;5.90;;;5.30;;
4794;SDS011;2411;47.060;15.064;2023-02-28T07:33:23;4.80;;;4.40;;
4794;SDS011;2411;47.060;15.064;2023-02-28T07:35:51;7.40;;;4.63;;
4794;SDS011;2411;47.060;15.064;2023-02-28T07:38:18;7.57;;;4.90;;
4794;SDS011;2411;47.060;15.064;2023-02-28T07:40:45;5.43;;;4.50;;
4794;SDS011;2411;47.060;15.064;2023-02-28T07:43:12;4.70;;;4.30;;
4794;SDS011;2411;47.060;15.064;2023-02-28T07:45:39;5.30;;;4.37;;
4794;SDS011;2411;47.060;15.064;2023-02-28T07:48:06;4.67;;;4.27;;
4794;SDS011;2411;47.060;15.064;2023-02-28T07:50:36;6.60;;;4.73;;
4794;SDS011;2411;47.060;15.064;2023-02-28T07:53:04;5.30;;;4.90;;
4794;SDS011;2411;47.060;15.064;2023-02-28T07:55:31;6.50;;;4.50;;
4794;SDS011;2411;47.060;15.064;2023-02-28T07:57:58;5.30;;;4.80;;
4794;SDS011;2411;47.060;15.064;2023-02-28T08:00:26;5.17;;;4.67;;
4794;SDS011;2411;47.060;15.064;2023-02-28T08:02:53;9.23;;;5.50;;
4794;SDS011;2411;47.060;15.064;2023-02-28T08:05:20;9.10;;;5.27;;
4794;SDS011;2411;47.060;15.064;2023-02-28T08:07:48;7.00;;;5.27;;
4794;SDS011;2411;47.060;15.064;2023-02-28T08:10:16;6.30;;;4.93;;
4794;SDS011;2411;47.060;15.064;2023-02-28T08:12:43;6.20;;;5.50;;
4794;SDS011;2411;47.060;15.064;2023-02-28T08:15:10;6.53;;;5.00;;
4794;SDS011;2411;47.060;15.064;2023-02-28T08:17:38;5.60;;;5.10;;
4794;SDS011;2411;47.060;15.064;2023-02-28T08:20:05;6.00;;;5.40;;
4794;SDS011;2411;47.060;15.064;2023-02-28T08:22:33;5.97;;;5.03;;
4794;SDS011;2411;47.060;15.064;2023-02-28T08:25:00;7.67;;;5.30;;
4794;SDS011;2411;47.060;15.064;2023-02-28T08:27:27;6.80;;;5.10;;
4794;SDS011;2411;47.060;15.064;2023-02-28T08:29:54;6.23;;;5.47;;
4794;SDS011;2411;47.060;15.064;2023-02-28T08:32:22;6.87;;;4.97;;
4794;SDS011;2411;47.060;15.064;2023-02-28T08:34:55;8.03;;;5.17;;
4794;SDS011;2411;47.060;15.064;2023-02-28T08:37:23;7.87;;;6.00;;
4794;SDS011;2411;47.060;15.064;2023-02-28T08:39:50;6.60;;;5.77;;
4794;SDS011;2411;47.060;15.064;2023-02-28T08:42:21;5.93;;;5.30;;
4794;SDS011;2411;47.060;15.064;2023-02-28T08:44:49;5.60;;;4.73;;
4794;SDS011;2411;47.060;15.064;2023-02-28T08:47:16;5.57;;;5.07;;
4794;SDS011;2411;47.060;15.064;2023-02-28T08:49:44;8.53;;;4.50;;
4794;SDS011;2411;47.060;15.064;2023-02-28T08:52:11;4.53;;;4.13;;
4794;SDS011;2411;47.060;15.064;2023-02-28T08:54:38;11.10;;;4.67;;
4794;SDS011;2411;47.060;15.064;2023-02-28T08:57:05;5.37;;;4.87;;
4794;SDS011;2411;47.060;15.064;2023-02-28T08:59:32;6.03;;;5.40;;
4794;SDS011;2411;47.060;15.064;2023-02-28T09:02:00;6.03;;;4.83;;
4794;SDS011;2411;47.060;15.064;2023-02-28T09:04:27;6.13;;;5.53;;
4794;SDS011;2411;47.060;15.064;2023-02-28T09:06:57;7.73;;;6.10;;
4794;SDS011;2411;47.060;15.064;2023-02-28T09:09:24;8.77;;;5.20;;
4794;SDS011;2411;47.060;15.064;2023-02-28T09:11:51;5.57;;;5.03;;
4794;SDS011;2411;47.060;15.064;2023-02-28T09:14:18;5.10;;;4.63;;
4794;SDS011;2411;47.060;15.064;2023-02-28T09:16:46;7.20;;;5.90;;
4794;SDS011;2411;47.060;15.064;2023-02-28T09:19:13;6.07;;;5.50;;
4794;SDS011;2411;47.060;15.064;2023-02-28T09:21:40;6.80;;;6.20;;
4794;SDS011;2411;47.060;15.064;2023-02-28T09:24:07;8.33;;;5.77;;
4794;SDS011;2411;47.060;15.064;2023-02-28T09:26:35;5.40;;;4.93;;
4794;SDS011;2411;47.060;15.064;2023-02-28T09:29:12;11.73;;;7.00;;
4794;SDS011;2411;47.060;15.064;2023-02-28T09:31:41;7.03;;;6.27;;
4794;SDS011;2411;47.060;15.064;2023-02-28T09:34:08;8.40;;;6.00;;
4794;SDS011;2411;47.060;15.064;2023-02-28T09:36:35;10.60;;;6.80;;
4794;SDS011;2411;47.060;15.064;2023-02-28T09:39:11;7.40;;;6.70;;
4794;SDS011;2411;47.060;15.064;2023-02-28T09:41:41;8.20;;;6.43;;
4794;SDS011;2411;47.060;15.064;2023-02-28T09:44:28;8.60;;;7.30;;
4794;SDS011;2411;47.060;15.064;2023-02-28T09:47:05;8.67;;;7.03;;
4794;SDS011;2411;47.060;15.064;2023-02-28T09:49:41;8.47;;;6.63;;
4794;SDS011;2411;47.060;15.064;2023-02-28T09:52:19;7.50;;;6.63;;
4794;SDS011;2411;47.060;15.064;2023-02-28T09:54:50;7.80;;;7.00;;
4794;SDS011;2411;47.060;15.064;2023-02-28T09:57:19;7.47;;;6.63;;
4794;SDS011;2411;47.060;15.064;2023-02-28T10:02:49;9.77;;;6.27;;
4794;SDS011;2411;47.060;15.064;2023-02-28T10:05:22;9.03;;;6.40;;
4794;SDS011;2411;47.060;15.064;2023-02-28T10:10:53;7.70;;;6.90;;
4794;SDS011;2411;47.060;15.064;2023-02-28T10:13:32;9.57;;;7.33;;
4794;SDS011;2411;47.060;15.064;2023-02-28T10:16:17;6.80;;;5.97;;
4794;SDS011;2411;47.060;15.064;2023-02-28T10:18:57;7.50;;;6.30;;
4794;SDS011;2411;47.060;15.064;2023-02-28T10:21:34;8.00;;;6.47;;
4794;SDS011;2411;47.060;15.064;2023-02-28T10:24:17;7.67;;;6.80;;
4794;SDS011;2411;47.060;15.064;2023-02-28T10:26:58;7.80;;;6.43;;
4794;SDS011;2411;47.060;15.064;2023-02-28T10:29:28;8.10;;;7.00;;
4794;SDS011;2411;47.060;15.064;2023-02-28T10:32:00;9.70;;;6.60;;
4794;SDS011;2411;47.060;15.064;2023-02-28T10:34:30;11.87;;;7.23;;
4794;SDS011;2411;47.060;15.064;2023-02-28T10:36:57;7.30;;;6.60;;
4794;SDS011;2411;47.060;15.064;2023-02-28T10:39:38;8.07;;;6.07;;
4794;SDS011;2411;47.060;15.064;2023-02-28T10:42:18;7.50;;;6.30;;
4794;SDS011;2411;47.060;15.064;2023-02-28T10:45:29;9.90;;;6.83;;
4794;SDS011;2411;47.060;15.064;2023-02-28T10:58:55;8.57;;;6.90;;
4794;SDS011;2411;47.060;15.064;2023-02-28T11:04:02;7.73;;;5.77;;
4794;SDS011;2411;47.060;15.064;2023-02-28T11:06:33;11.83;;;7.50;;
4794;SDS011;2411;47.060;15.064;2023-02-28T11:09:03;8.13;;;6.50;;
4794;SDS011;2411;47.060;15.064;2023-02-28T11:11:41;8.23;;;6.70;;
4794;SDS011;2411;47.060;15.064;2023-02-28T11:14:47;9.03;;;6.17;;
4794;SDS011;2411;47.060;15.064;2023-02-28T11:17:15;7.90;;;6.77;;
4794;SDS011;2411;47.060;15.064;2023-02-28T11:19:51;8.13;;;7.00;;
4794;SDS011;2411;47.060;15.064;2023-02-28T11:22:28;10.10;;;7.60;;
4794;SDS011;2411;47.060;15.064;2023-02-28T11:24:59;8.10;;;7.07;;
4794;SDS011;2411;47.060;15.064;2023-02-28T11:30:00;8.20;;;7.40;;
4794;SDS011;2411;47.060;15.064;2023-02-28T11:32:28;10.13;;;6.93;;
4794;SDS011;2411;47.060;15.064;2023-02-28T11:37:36;9.53;;;7.13;;
4794;SDS011;2411;47.060;15.064;2023-02-28T11:40:15;13.20;;;7.03;;
4794;SDS011;2411;47.060;15.064;2023-02-28T11:42:54;8.00;;;6.10;;
4794;SDS011;2411;47.060;15.064;2023-02-28T11:48:22;10.37;;;7.07;;
4794;SDS011;2411;47.060;15.064;2023-02-28T11:50:59;8.17;;;6.90;;
4794;SDS011;2411;47.060;15.064;2023-02-28T11:54:04;9.17;;;6.93;;
4794;SDS011;2411;47.060;15.064;2023-02-28T11:56:48;7.97;;;6.70;;
4794;SDS011;2411;47.060;15.064;2023-02-28T12:07:46;8.90;;;6.80;;
4794;SDS011;2411;47.060;15.064;2023-02-28T12:29:03;12.43;;;7.97;;
4794;SDS011;2411;47.060;15.064;2023-02-28T12:31:36;7.40;;;6.70;;
4794;SDS011;2411;47.060;15.064;2023-02-28T12:34:12;7.50;;;6.70;;
4794;SDS011;2411;47.060;15.064;2023-02-28T12:36:47;8.07;;;6.80;;
4794;SDS011;2411;47.060;15.064;2023-02-28T12:39:38;9.90;;;7.17;;
4794;SDS011;2411;47.060;15.064;2023-02-28T12:42:27;6.83;;;6.10;;
4794;SDS011;2411;47.060;15.064;2023-02-28T12:45:18;18.87;;;8.17;;
4794;SDS011;2411;47.060;15.064;2023-02-28T12:47:58;8.40;;;6.47;;
4794;SDS011;2411;47.060;15.064;2023-02-28T12:50:29;8.17;;;6.40;;
4794;SDS011;2411;47.060;15.064;2023-02-28T12:58:31;9.17;;;7.40;;
4794;SDS011;2411;47.060;15.064;2023-02-28T13:09:18;8.20;;;6.43;;
4794;SDS011;2411;47.060;15.064;2023-02-28T13:11:47;9.40;;;6.50;;
4794;SDS011;2411;47.060;15.064;2023-02-28T13:14:37;8.07;;;7.00;;
4794;SDS011;2411;47.060;15.064;2023-02-28T13:19:36;14.50;;;7.93;;
4794;SDS011;2411;47.060;15.064;2023-02-28T13:22:05;9.30;;;6.93;;
4794;SDS011;2411;47.060;15.064;2023-02-28T13:25:50;10.30;;;7.30;;
4794;SDS011;2411;47.060;15.064;2023-02-28T13:27:52;11.90;;;8.27;;
4794;SDS011;2411;47.060;15.064;2023-02-28T13:35:46;11.27;;;7.00;;
4794;SDS011;2411;47.060;15.064;2023-02-28T13:38:16;6.93;;;6.33;;
4794;SDS011;2411;47.060;15.064;2023-02-28T13:40:51;8.40;;;7.43;;
4794;SDS011;2411;47.060;15.064;2023-02-28T13:43:18;8.27;;;7.40;;
4794;SDS011;2411;47.060;15.064;2023-02-28T13:46:04;8.47;;;6.90;;
4794;SDS011;2411;47.060;15.064;2023-02-28T13:48:38;8.30;;;6.80;;
4794;SDS011;2411;47.060;15.064;2023-02-28T13:51:39;10.07;;;6.83;;
4794;SDS011;2411;47.060;15.064;2023-02-28T13:54:13;9.60;;;6.87;;
4794;SDS011;2411;47.060;15.064;2023-02-28T13:59:36;8.27;;;6.97;;
4794;SDS011;2411;47.060;15.064;2023-02-28T14:02:24;7.67;;;6.80;;
4794;SDS011;2411;47.060;15.064;2023-02-28T14:05:18;10.00;;;6.43;;
4794;SDS011;2411;47.060;15.064;2023-02-28T14:07:54;8.30;;;6.57;;
4794;SDS011;2411;47.060;15.064;2023-02-28T14:10:31;9.83;;;7.70;;
4794;SDS011;2411;47.060;15.064;2023-02-28T14:15:44;10.87;;;7.50;;
4794;SDS011;2411;47.060;15.064;2023-02-28T14:18:16;11.73;;;7.47;;
4794;SDS011;2411;47.060;15.064;2023-02-28T14:20:57;12.90;;;6.77;;
4794;SDS011;2411;47.060;15.064;2023-02-28T14:26:37;12.87;;;7.50;;
4794;SDS011;2411;47.060;15.064;2023-02-28T14:35:13;7.93;;;6.97;;
4794;SDS011;2411;47.060;15.064;2023-02-28T14:37:43;9.37;;;7.60;;
4794;SDS011;2411;47.060;15.064;2023-02-28T14:43:18;9.30;;;7.40;;
4794;SDS011;2411;47.060;15.064;2023-02-28T14:46:00;10.10;;;7.17;;
4794;SDS011;2411;47.060;15.064;2023-02-28T14:48:29;12.67;;;7.67;;
4794;SDS011;2411;47.060;15.064;2023-02-28T14:50:57;9.20;;;7.60;;
4794;SDS011;2411;47.060;15.064;2023-02-28T14:53:30;11.03;;;8.90;;
4794;SDS011;2411;47.060;15.064;2023-02-28T14:56:03;9.83;;;7.50;;
4794;SDS011;2411;47.060;15.064;2023-02-28T14:58:32;8.80;;;7.90;;
4794;SDS011;2411;47.060;15.064;2023-02-28T15:01:01;10.50;;;8.30;;
4794;SDS011;2411;47.060;15.064;2023-02-28T15:03:32;10.77;;;8.30;;
4794;SDS011;2411;47.060;15.064;2023-02-28T15:06:15;12.50;;;8.50;;
4794;SDS011;2411;47.060;15.064;2023-02-28T15:08:44;11.57;;;9.17;;
4794;SDS011;2411;47.060;15.064;2023-02-28T15:11:13;9.77;;;8.20;;
4794;SDS011;2411;47.060;15.064;2023-02-28T15:13:46;9.20;;;8.30;;
4794;SDS011;2411;47.060;15.064;2023-02-28T15:18:51;8.90;;;7.40;;
4794;SDS011;2411;47.060;15.064;2023-02-28T15:21:22;13.63;;;8.57;;
4794;SDS011;2411;47.060;15.064;2023-02-28T15:23:56;8.93;;;8.03;;
4794;SDS011;2411;47.060;15.064;2023-02-28T15:26:31;9.60;;;7.53;;
4794;SDS011;2411;47.060;15.064;2023-02-28T15:29:03;11.30;;;8.67;;
4794;SDS011;2411;47.060;15.064;2023-02-28T15:31:43;13.37;;;8.40;;
4794;SDS011;2411;47.060;15.064;2023-02-28T15:34:30;22.30;;;8.30;;
4794;SDS011;2411;47.060;15.064;2023-02-28T15:37:33;8.87;;;7.63;;
4794;SDS011;2411;47.060;15.064;2023-02-28T15:40:10;10.53;;;7.83;;
4794;SDS011;2411;47.060;15.064;2023-02-28T15:42:40;10.17;;;7.27;;
4794;SDS011;2411;47.060;15.064;2023-02-28T15:45:56;9.40;;;7.57;;
4794;SDS011;2411;47.060;15.064;2023-02-28T15:48:05;7.20;;;6.50;;
4794;SDS011;2411;47.060;15.064;2023-02-28T15:50:40;10.53;;;7.17;;
4794;SDS011;2411;47.060;15.064;2023-02-28T15:53:12;9.80;;;7.90;;
4794;SDS011;2411;47.060;15.064;2023-02-28T15:55:41;9.13;;;7.37;;
4794;SDS011;2411;47.060;15.064;2023-02-28T15:58:09;11.07;;;7.40;;
4794;SDS011;2411;47.060;15.064;2023-02-28T16:00:39;9.87;;;8.40;;
4794;SDS011;2411;47.060;15.064;2023-02-28T16:03:32;11.20;;;7.60;;
4794;SDS011;2411;47.060;15.064;2023-02-28T16:06:21;10.40;;;7.57;;
4794;SDS011;2411;47.060;15.064;2023-02-28T16:08:51;12.17;;;8.60;;
4794;SDS011;2411;47.060;15.064;2023-02-28T16:11:22;11.83;;;9.07;;
4794;SDS011;2411;47.060;15.064;2023-02-28T16:13:49;13.17;;;7.43;;
4794;SDS011;2411;47.060;15.064;2023-02-28T16:16:18;12.40;;;8.63;;
4794;SDS011;2411;47.060;15.064;2023-02-28T16:18:48;12.97;;;9.20;;
4794;SDS011;2411;47.060;15.064;2023-02-28T16:21:15;11.93;;;8.23;;
4794;SDS011;2411;47.060;15.064;2023-02-28T16:23:43;10.80;;;8.50;;
4794;SDS011;2411;47.060;15.064;2023-02-28T16:26:16;10.67;;;7.70;;
4794;SDS011;2411;47.060;15.064;2023-02-28T16:28:47;12.40;;;7.83;;
4794;SDS011;2411;47.060;15.064;2023-02-28T16:31:15;11.60;;;8.17;;
4794;SDS011;2411;47.060;15.064;2023-02-28T16:33:43;12.23;;;8.10;;
4794;SDS011;2411;47.060;15.064;2023-02-28T16:36:21;12.47;;;9.63;;
4794;SDS011;2411;47.060;15.064;2023-02-28T16:38:53;16.77;;;11.13;;
4794;SDS011;2411;47.060;15.064;2023-02-28T16:41:22;17.77;;;10.77;;
4794;SDS011;2411;47.060;15.064;2023-02-28T16:43:52;17.63;;;10.73;;
4794;SDS011;2411;47.060;15.064;2023-02-28T16:46:30;16.00;;;9.90;;
4794;SDS011;2411;47.060;15.064;2023-02-28T16:49:00;11.87;;;8.47;;
4794;SDS011;2411;47.060;15.064;2023-02-28T16:51:27;14.67;;;11.03;;
4794;SDS011;2411;47.060;15.064;2023-02-28T16:53:55;15.33;;;9.87;;
4794;SDS011;2411;47.060;15.064;2023-02-28T16:56:22;10.60;;;7.67;;
4794;SDS011;2411;47.060;15.064;2023-02-28T16:58:51;9.70;;;7.70;;
4794;SDS011;2411;47.060;15.064;2023-02-28T17:01:25;9.50;;;7.97;;
4794;SDS011;2411;47.060;15.064;2023-02-28T17:03:54;10.33;;;7.10;;
4794;SDS011;2411;47.060;15.064;2023-02-28T17:06:23;9.60;;;7.73;;
4794;SDS011;2411;47.060;15.064;2023-02-28T17:08:54;15.77;;;8.90;;
4794;SDS011;2411;47.060;15.064;2023-02-28T17:11:22;9.90;;;8.20;;
4794;SDS011;2411;47.060;15.064;2023-02-28T17:13:49;10.50;;;8.37;;
4794;SDS011;2411;47.060;15.064;2023-02-28T17:16:35;12.47;;;9.20;;
4794;SDS011;2411;47.060;15.064;2023-02-28T17:19:06;10.70;;;8.10;;
4794;SDS011;2411;47.060;15.064;2023-02-28T17:21:41;10.90;;;8.10;;
4794;SDS011;2411;47.060;15.064;2023-02-28T17:24:09;9.60;;;7.27;;
4794;SDS011;2411;47.060;15.064;2023-02-28T17:26:44;9.93;;;7.30;;
4794;SDS011;2411;47.060;15.064;2023-02-28T17:29:16;10.13;;;7.43;;
4794;SDS011;2411;47.060;15.064;2023-02-28T17:31:45;9.33;;;7.43;;
4794;SDS011;2411;47.060;15.064;2023-02-28T17:34:13;11.00;;;8.30;;